createdAt,value
2023-02-27T12:39:24.722Z,47968.00
2023-02-27T12:41:54.310Z,46688.00
2023-02-27T12:42:54.288Z,35040.00
2023-02-27T12:43:54.289Z,27200.00
2023-02-27T12:46:42.076Z,49216.00
2023-02-27T12:49:37.975Z,38848.00
2023-02-27T12:50:37.957Z,44704.00
2023-02-27T12:51:37.949Z,46688.00
2023-02-27T12:52:37.911Z,46144.00
2023-02-27T12:53:37.896Z,45152.00
2023-02-27T12:54:37.865Z,44928.00
2023-02-27T12:55:37.834Z,44544.00
2023-02-27T12:56:37.801Z,45664.00
2023-02-27T12:57:37.812Z,17024.00
2023-02-27T13:03:46.252Z,44640.00
2023-02-27T13:04:46.204Z,45376.00
2023-02-27T13:05:46.197Z,46400.00
2023-02-27T13:06:46.178Z,48512.00
2023-02-27T13:07:46.157Z,50080.00
2023-02-27T13:08:46.124Z,39552.00
2023-02-27T13:09:46.120Z,48256.00
2023-02-27T13:10:46.094Z,46592.00
2023-02-27T13:11:46.052Z,48864.00
2023-02-27T13:13:09.822Z,50528.00
2023-02-27T13:14:09.763Z,47872.00
2023-02-27T13:15:09.730Z,46560.00
2023-02-27T13:16:09.757Z,47296.00
2023-02-27T13:17:09.673Z,48288.00
2023-02-27T13:18:09.660Z,48032.00
2023-02-27T13:19:09.628Z,46592.00
2023-02-27T13:20:09.778Z,46144.00
2023-02-27T13:21:09.606Z,46816.00
2023-02-27T13:22:09.574Z,46016.00
2023-02-27T13:23:09.607Z,43712.00
2023-02-27T13:24:09.546Z,44960.00
2023-02-27T13:25:09.521Z,46336.00
2023-02-27T13:26:09.500Z,46848.00
2023-02-27T13:27:09.495Z,46240.00
2023-02-27T13:28:09.474Z,45888.00
2023-02-27T13:29:09.433Z,45984.00
2023-02-27T13:30:09.525Z,47232.00
2023-02-27T13:31:09.401Z,45856.00
2023-02-27T13:32:09.454Z,45152.00
2023-02-27T13:33:09.447Z,46944.00
2023-02-27T13:34:09.352Z,46368.00
2023-02-27T13:35:09.353Z,45088.00
2023-02-27T13:36:09.332Z,45056.00
2023-02-27T13:37:09.375Z,45920.00
2023-02-27T13:38:09.288Z,45728.00
2023-02-27T13:39:09.258Z,44896.00
2023-02-27T13:40:09.274Z,42848.00
2023-02-27T13:41:09.234Z,41504.00
2023-02-27T13:42:09.222Z,41088.00
2023-02-27T13:43:09.167Z,41504.00
2023-02-27T13:44:09.161Z,41728.00
2023-02-27T13:45:09.148Z,42336.00
2023-02-27T13:46:09.140Z,44288.00
2023-02-27T13:47:09.113Z,44160.00
2023-02-27T13:48:09.093Z,43392.00
2023-02-27T13:49:12.508Z,42464.00
2023-02-27T13:50:09.132Z,42624.00
2023-02-27T13:51:09.042Z,43712.00
2023-02-27T13:52:09.011Z,44320.00
2023-02-27T13:53:08.985Z,43840.00
2023-02-27T13:54:09.001Z,42752.00
2023-02-27T13:55:12.089Z,43744.00
2023-02-27T13:56:08.963Z,44320.00
2023-02-27T13:57:08.977Z,45120.00
2023-02-27T13:58:08.928Z,46560.00
2023-02-27T13:59:08.912Z,9740.00
2023-02-27T14:00:11.682Z,44416.00
2023-02-27T14:04:39.191Z,26432.00
2023-02-27T14:05:39.187Z,13716.00
2023-02-27T14:07:08.365Z,13960.00
2023-02-27T14:08:08.350Z,19328.00
2023-02-27T14:09:14.871Z,25952.00
2023-02-27T14:13:04.054Z,28864.00
2023-02-27T14:14:04.112Z,15840.00
2023-02-27T14:17:38.509Z,14580.00
2023-02-27T14:18:38.441Z,19136.00
2023-02-27T14:19:38.431Z,12708.00
2023-02-27T14:20:38.445Z,22336.00
2023-02-27T14:21:38.393Z,29984.00
2023-02-27T14:22:38.386Z,32832.00
2023-02-27T14:23:38.354Z,35168.00
2023-02-27T14:24:38.404Z,36064.00
2023-02-27T14:25:38.339Z,35872.00
2023-02-27T14:26:38.329Z,33184.00
2023-02-27T14:31:00.946Z,8224.00
2023-02-27T14:45:52.718Z,31200.00
